Time;durP1;ratioP1;P1;durP2;ratioP2;P2;SDS_P1;SDS_P2;PMS_P1;PMS_P2;Temp;Humidity;BMP_temperature;BMP_pressure;BME280_temperature;BME280_humidity;BME280_pressure;Samples;Min_cycle;Max_cycle;Signal;HPM_P1;HPM_P2
2023/04/22 00:00:54;;;;;;;15.48;9.35;;;14.00;99.90;;;;;;4786650;30;20193;-83
2023/04/22 00:03:23;;;;;;;12.90;9.63;;;14.00;99.90;;;;;;4771329;30;20661;-83
2023/04/22 00:05:49;;;;;;;18.08;10.32;;;14.00;99.90;;;;;;4756642;30;20200;-82
2023/04/22 00:08:15;;;;;;;11.93;9.73;;;14.00;99.90;;;;;;4771442;30;20334;-82
2023/04/22 00:10:40;;;;;;;15.13;10.30;;;14.00;99.90;;;;;;4765093;30;20196;-82
2023/04/22 00:13:06;;;;;;;14.65;10.25;;;14.00;99.90;;;;;;4768347;30;20357;-82
2023/04/22 00:15:32;;;;;;;13.05;10.40;;;13.90;99.90;;;;;;4783588;29;20219;-83
2023/04/22 00:17:58;;;;;;;12.13;9.70;;;13.90;99.90;;;;;;4757185;30;20653;-82
2023/04/22 00:20:24;;;;;;;11.30;10.07;;;13.90;99.90;;;;;;4771967;30;20188;-82
2023/04/22 00:22:50;;;;;;;17.33;10.25;;;13.90;99.90;;;;;;4772637;30;20661;-82
2023/04/22 00:25:16;;;;;;;14.55;10.80;;;13.90;99.90;;;;;;4784033;29;20208;-81
2023/04/22 00:27:43;;;;;;;16.30;10.55;;;13.90;99.90;;;;;;4781224;29;20199;-82
2023/04/22 00:30:10;;;;;;;17.95;10.82;;;13.90;99.90;;;;;;4775897;30;20207;-82
2023/04/22 00:32:36;;;;;;;14.75;10.50;;;13.80;99.90;;;;;;4745700;30;20288;-82
2023/04/22 00:35:03;;;;;;;17.85;11.00;;;13.80;99.90;;;;;;4759993;30;20250;-82
2023/04/22 00:37:29;;;;;;;15.52;11.45;;;13.80;99.90;;;;;;4774755;30;20195;-82
2023/04/22 00:39:56;;;;;;;13.88;10.68;;;13.80;99.90;;;;;;4790589;30;20571;-82
2023/04/22 00:42:22;;;;;;;17.40;11.07;;;13.80;99.90;;;;;;4760435;30;20193;-82
2023/04/22 00:44:50;;;;;;;16.40;11.93;;;13.80;99.90;;;;;;4757387;30;20316;-82
2023/04/22 00:47:16;;;;;;;16.75;12.18;;;13.80;99.90;;;;;;4759160;30;20203;-83
2023/04/22 00:49:42;;;;;;;18.65;12.70;;;13.70;99.90;;;;;;4774652;30;20666;-82
2023/04/22 00:52:08;;;;;;;14.88;11.90;;;13.70;99.90;;;;;;4789225;30;20213;-83
2023/04/22 00:54:35;;;;;;;15.38;11.82;;;13.70;99.90;;;;;;4774312;30;20221;-82
2023/04/22 00:57:02;;;;;;;15.13;12.10;;;13.70;99.90;;;;;;4782914;29;20193;-82
2023/04/22 00:59:28;;;;;;;17.38;12.73;;;13.60;99.90;;;;;;4779083;30;20223;-82
2023/04/22 01:01:55;;;;;;;16.55;12.40;;;13.50;99.90;;;;;;4789316;30;20214;-82
2023/04/22 01:04:21;;;;;;;17.15;13.10;;;13.50;99.90;;;;;;4759073;30;20252;-82
2023/04/22 01:06:49;;;;;;;16.08;12.95;;;13.40;99.90;;;;;;4742949;30;20196;-82
2023/04/22 01:09:17;;;;;;;15.57;12.45;;;13.40;99.90;;;;;;4757310;30;20197;-82
2023/04/22 01:11:44;;;;;;;19.08;13.27;;;13.30;99.90;;;;;;4780161;29;20699;-83
2023/04/22 01:14:09;;;;;;;17.40;12.30;;;13.30;99.90;;;;;;4774008;30;20193;-83
2023/04/22 01:16:37;;;;;;;17.67;12.45;;;13.20;99.90;;;;;;4786926;30;20207;-83
2023/04/22 01:19:05;;;;;;;15.50;12.13;;;13.20;99.90;;;;;;4772458;30;20197;-82
2023/04/22 01:21:33;;;;;;;18.00;12.48;;;13.20;99.90;;;;;;4770049;30;20198;-82
2023/04/22 01:24:02;;;;;;;17.63;13.25;;;13.10;99.90;;;;;;4782196;30;20315;-83
2023/04/22 01:26:28;;;;;;;19.60;13.20;;;13.10;99.90;;;;;;4789283;30;20359;-81
2023/04/22 01:28:54;;;;;;;18.55;13.27;;;13.10;99.90;;;;;;4772212;30;20291;-86
2023/04/22 01:31:20;;;;;;;16.30;12.52;;;13.00;99.90;;;;;;4779974;30;20196;-82
2023/04/22 01:33:47;;;;;;;16.33;13.02;;;13.00;99.90;;;;;;4774205;30;20532;-82
2023/04/22 01:36:13;;;;;;;17.77;13.00;;;12.90;99.90;;;;;;4772032;30;20197;-84
2023/04/22 01:38:39;;;;;;;16.88;12.88;;;12.90;99.90;;;;;;4773627;30;20188;-83
2023/04/22 01:41:05;;;;;;;18.10;13.27;;;12.90;99.90;;;;;;4773812;30;20193;-83
2023/04/22 01:43:31;;;;;;;17.15;12.90;;;12.90;99.90;;;;;;4773408;30;20193;-85
2023/04/22 01:46:00;;;;;;;19.05;13.20;;;12.80;99.90;;;;;;4756309;30;20341;-83
2023/04/22 01:48:27;;;;;;;20.83;13.30;;;12.80;99.90;;;;;;4773746;30;20208;-82
2023/04/22 01:50:52;;;;;;;18.23;13.10;;;12.80;99.90;;;;;;4782189;29;20197;-84
2023/04/22 01:53:18;;;;;;;17.95;13.25;;;12.80;99.90;;;;;;4772329;30;20188;-84
2023/04/22 01:55:44;;;;;;;20.48;13.68;;;12.80;99.90;;;;;;4772546;30;20218;-83
2023/04/22 01:58:12;;;;;;;19.30;13.32;;;12.70;99.90;;;;;;4788516;30;20258;-83
2023/04/22 02:00:38;;;;;;;16.30;12.55;;;12.70;99.90;;;;;;4772577;30;20644;-83
2023/04/22 02:03:04;;;;;;;18.02;14.02;;;12.70;99.90;;;;;;4772794;30;20253;-82
2023/04/22 02:05:30;;;;;;;18.85;13.85;;;12.70;99.90;;;;;;4789017;30;20235;-82
2023/04/22 02:07:56;;;;;;;19.00;14.05;;;12.70;99.90;;;;;;4772325;30;20295;-83
2023/04/22 02:10:22;;;;;;;20.63;14.73;;;12.70;99.90;;;;;;4772213;30;20280;-83
2023/04/22 02:12:48;;;;;;;21.08;14.73;;;12.70;99.90;;;;;;4757318;30;20204;-83
2023/04/22 02:15:14;;;;;;;18.70;14.52;;;12.60;99.90;;;;;;4773158;30;20304;-82
2023/04/22 02:17:42;;;;;;;19.55;15.10;;;12.60;99.90;;;;;;4769922;30;20193;-83
2023/04/22 02:20:10;;;;;;;22.02;15.63;;;12.60;99.90;;;;;;4786996;29;20185;-85
2023/04/22 02:22:36;;;;;;;18.35;14.68;;;12.60;99.90;;;;;;4755436;30;20230;-83
2023/04/22 02:25:02;;;;;;;18.38;13.70;;;12.50;99.90;;;;;;4773052;30;20212;-83
2023/04/22 02:27:29;;;;;;;21.20;14.60;;;12.50;99.90;;;;;;4764979;30;20237;-83
2023/04/22 02:29:55;;;;;;;20.25;14.77;;;12.50;99.90;;;;;;4739556;30;20199;-83
2023/04/22 02:32:20;;;;;;;22.92;15.88;;;12.50;99.90;;;;;;4772936;30;20602;-83
2023/04/22 02:34:47;;;;;;;21.17;14.77;;;12.50;99.90;;;;;;4771763;30;20217;-83
2023/04/22 02:37:13;;;;;;;18.88;15.07;;;12.40;99.90;;;;;;4779182;30;20193;-83
2023/04/22 02:39:39;;;;;;;27.63;15.95;;;12.40;99.90;;;;;;4769358;30;20197;-83
2023/04/22 02:42:05;;;;;;;19.90;16.00;;;12.40;99.90;;;;;;4769074;30;20197;-83
2023/04/22 02:44:31;;;;;;;20.80;15.85;;;12.40;99.90;;;;;;4769414;30;20296;-84
2023/04/22 02:46:57;;;;;;;23.27;16.40;;;12.40;99.90;;;;;;4763110;30;20244;-83
2023/04/22 02:49:23;;;;;;;20.05;16.27;;;12.40;99.90;;;;;;4764807;30;20190;-83
2023/04/22 02:51:49;;;;;;;22.27;16.77;;;12.30;99.90;;;;;;4762405;29;20625;-82
2023/04/22 02:54:15;;;;;;;26.35;17.40;;;12.30;99.90;;;;;;4754603;29;20240;-85
2023/04/22 02:56:41;;;;;;;24.13;17.20;;;12.30;99.90;;;;;;4764911;30;20212;-83
2023/04/22 02:59:07;;;;;;;22.52;18.20;;;12.30;99.90;;;;;;4776842;30;20241;-83
2023/04/22 03:01:32;;;;;;;21.98;16.85;;;12.30;99.90;;;;;;4755897;30;20193;-83
2023/04/22 03:04:01;;;;;;;19.58;16.10;;;12.30;99.90;;;;;;4771632;30;20221;-83
2023/04/22 03:06:27;;;;;;;20.80;16.48;;;12.20;99.90;;;;;;4757225;30;20673;-83
2023/04/22 03:08:53;;;;;;;20.25;16.15;;;12.20;99.90;;;;;;4772386;30;20192;-83
2023/04/22 03:11:19;;;;;;;20.50;16.70;;;12.20;99.90;;;;;;4756198;30;20216;-83
2023/04/22 03:13:45;;;;;;;21.38;16.45;;;12.20;99.90;;;;;;4772062;30;20188;-83
2023/04/22 03:16:11;;;;;;;22.73;17.13;;;12.20;99.90;;;;;;4770750;30;20207;-83
2023/04/22 03:18:38;;;;;;;23.80;17.38;;;12.20;99.90;;;;;;4772297;30;20197;-84
2023/04/22 03:21:04;;;;;;;23.58;17.98;;;12.10;99.90;;;;;;4770450;30;20200;-83
2023/04/22 03:23:30;;;;;;;26.75;18.60;;;12.10;99.90;;;;;;4770532;29;20201;-83
2023/04/22 03:25:55;;;;;;;20.45;16.75;;;12.10;99.90;;;;;;4760954;30;20242;-83
2023/04/22 03:28:22;;;;;;;22.27;17.98;;;12.10;99.90;;;;;;4763673;30;20632;-82
2023/04/22 03:30:48;;;;;;;23.48;17.58;;;12.10;99.90;;;;;;4771752;30;20296;-85
2023/04/22 03:33:14;;;;;;;22.52;17.63;;;12.10;99.90;;;;;;4765351;30;20283;-86
2023/04/22 03:35:54;;;;;;;24.02;17.90;;;12.00;99.90;;;;;;4765014;30;20196;-83
2023/04/22 03:38:20;;;;;;;22.83;18.55;;;12.00;99.90;;;;;;4756721;30;22197;-82
2023/04/22 03:40:49;;;;;;;24.80;17.63;;;12.00;99.90;;;;;;4771368;30;20210;-83
2023/04/22 03:43:28;;;;;;;25.52;17.98;;;12.00;99.90;;;;;;4771345;30;20200;-83
2023/04/22 03:46:00;;;;;;;24.88;18.77;;;12.00;99.90;;;;;;4767942;30;20196;-83
2023/04/22 03:48:32;;;;;;;23.65;19.00;;;11.90;99.90;;;;;;4770401;30;20189;-82
2023/04/22 03:50:59;;;;;;;21.92;17.98;;;11.90;99.90;;;;;;4757370;30;20610;-85
2023/04/22 03:53:26;;;;;;;27.30;19.80;;;11.80;99.90;;;;;;4742268;30;20229;-82
2023/04/22 03:55:52;;;;;;;24.27;19.42;;;11.80;99.90;;;;;;4755670;30;20565;-84
2023/04/22 03:58:18;;;;;;;25.90;19.45;;;11.80;99.90;;;;;;4787535;29;20556;-83
2023/04/22 04:00:45;;;;;;;27.60;18.77;;;11.80;99.90;;;;;;4758008;30;20730;-82
2023/04/22 04:03:16;;;;;;;23.55;18.95;;;11.70;99.90;;;;;;4743242;30;20221;-85
2023/04/22 04:05:44;;;;;;;26.27;19.77;;;11.70;99.90;;;;;;4747494;30;20270;-83
2023/04/22 04:08:10;;;;;;;25.70;19.70;;;11.70;99.90;;;;;;4756347;30;20213;-82
2023/04/22 04:10:36;;;;;;;27.02;20.98;;;11.60;99.90;;;;;;4770655;30;20215;-83
2023/04/22 04:13:03;;;;;;;27.83;19.98;;;11.60;99.90;;;;;;4774664;30;20288;-82
2023/04/22 04:15:36;;;;;;;24.67;20.52;;;11.60;99.90;;;;;;4774232;30;20249;-83
2023/04/22 04:18:02;;;;;;;29.40;19.83;;;11.60;99.90;;;;;;4774490;30;20215;-82
2023/04/22 04:20:30;;;;;;;25.52;19.27;;;11.60;99.90;;;;;;4774947;30;20672;-83
2023/04/22 04:22:57;;;;;;;24.23;19.13;;;11.50;99.90;;;;;;4774510;30;20283;-83
2023/04/22 04:25:23;;;;;;;27.92;20.13;;;11.50;99.90;;;;;;4760165;29;20307;-83
2023/04/22 04:27:50;;;;;;;26.80;19.65;;;11.40;99.90;;;;;;4743769;30;20259;-83
2023/04/22 04:30:17;;;;;;;28.15;19.88;;;11.40;99.90;;;;;;4774224;30;20652;-84
2023/04/22 04:32:51;;;;;;;26.23;19.80;;;11.30;99.90;;;;;;4781445;29;20216;-83
2023/04/22 04:35:17;;;;;;;24.75;20.17;;;11.30;99.90;;;;;;4771484;30;20633;-83
2023/04/22 04:37:49;;;;;;;28.35;21.35;;;11.30;99.90;;;;;;4760345;30;22287;-83
2023/04/22 04:40:16;;;;;;;28.90;20.48;;;11.20;99.90;;;;;;4773340;30;20250;-83
2023/04/22 04:43:01;;;;;;;26.65;20.90;;;11.20;99.90;;;;;;4782601;29;20203;-83
2023/04/22 04:45:35;;;;;;;27.13;20.88;;;11.20;99.90;;;;;;4763196;30;20220;-83
2023/04/22 04:48:01;;;;;;;26.33;20.58;;;11.10;99.90;;;;;;4770425;30;20255;-82
2023/04/22 04:50:34;;;;;;;26.58;20.75;;;11.10;99.90;;;;;;4761763;30;20778;-83
2023/04/22 04:53:01;;;;;;;24.58;19.95;;;11.10;99.90;;;;;;4759023;30;20201;-83
2023/04/22 04:55:33;;;;;;;26.85;19.80;;;11.20;99.90;;;;;;4771676;30;20621;-83
2023/04/22 04:58:04;;;;;;;26.48;19.83;;;11.20;99.90;;;;;;4776156;29;20203;-83
2023/04/22 05:00:30;;;;;;;27.88;20.02;;;11.20;99.90;;;;;;4762142;30;20193;-83
2023/04/22 05:02:56;;;;;;;27.70;20.00;;;11.20;99.90;;;;;;4758014;30;20586;-83
2023/04/22 05:05:22;;;;;;;27.30;20.27;;;11.20;99.90;;;;;;4758385;30;20320;-91
2023/04/22 05:07:47;;;;;;;25.50;19.13;;;11.10;99.90;;;;;;4758324;30;20659;-79
2023/04/22 05:10:15;;;;;;;24.98;19.42;;;11.10;99.90;;;;;;4773699;30;20204;-82
2023/04/22 05:12:40;;;;;;;25.70;19.15;;;11.10;99.90;;;;;;4773160;30;20563;-82
2023/04/22 05:15:10;;;;;;;24.25;18.40;;;11.10;99.90;;;;;;4773112;30;20209;-81
2023/04/22 05:17:36;;;;;;;25.15;19.08;;;11.10;99.90;;;;;;4772443;30;20209;-82
2023/04/22 05:20:03;;;;;;;27.30;18.85;;;11.10;99.90;;;;;;4772920;30;20199;-83
2023/04/22 05:22:29;;;;;;;26.08;18.98;;;11.20;99.90;;;;;;4772213;30;20197;-83
2023/04/22 05:24:55;;;;;;;26.17;19.42;;;11.20;99.90;;;;;;4755600;30;20218;-83
2023/04/22 05:27:21;;;;;;;25.80;18.95;;;11.20;99.90;;;;;;4770435;29;20294;-83
2023/04/22 05:29:46;;;;;;;25.40;18.25;;;11.20;99.90;;;;;;4785830;30;20279;-81
2023/04/22 05:32:13;;;;;;;25.30;18.30;;;11.20;99.90;;;;;;4786963;30;20583;-80
2023/04/22 05:34:39;;;;;;;25.13;18.50;;;11.10;99.90;;;;;;4774485;30;20209;-82
2023/04/22 05:37:05;;;;;;;22.77;17.88;;;11.10;99.90;;;;;;4783674;30;20200;-82
2023/04/22 05:39:34;;;;;;;24.70;17.92;;;11.10;99.90;;;;;;4783590;29;20220;-82
2023/04/22 05:42:04;;;;;;;26.85;19.08;;;11.10;99.90;;;;;;4755464;30;20201;-80
2023/04/22 05:44:30;;;;;;;23.50;18.95;;;11.20;99.90;;;;;;4782021;30;20225;-79
2023/04/22 05:46:56;;;;;;;26.35;19.02;;;11.20;99.90;;;;;;4772262;30;20210;-80
2023/04/22 05:49:24;;;;;;;24.67;18.85;;;11.30;99.90;;;;;;4773165;30;20642;-81
2023/04/22 05:52:10;;;;;;;25.83;19.40;;;11.30;99.90;;;;;;4762556;30;20651;-80
2023/04/22 05:54:48;;;;;;;23.77;18.17;;;11.30;99.90;;;;;;4741599;30;20197;-81
2023/04/22 05:57:14;;;;;;;24.48;18.08;;;11.30;99.90;;;;;;4767641;29;20260;-82
2023/04/22 05:59:39;;;;;;;24.83;18.73;;;11.30;99.90;;;;;;4771419;30;20198;-81
2023/04/22 06:02:05;;;;;;;26.90;18.48;;;11.30;99.90;;;;;;4772385;30;20196;-83
2023/04/22 06:04:31;;;;;;;25.50;18.27;;;11.40;99.90;;;;;;4786138;30;20328;-82
2023/04/22 06:06:59;;;;;;;24.35;18.63;;;11.40;99.90;;;;;;4754415;30;20666;-81
2023/04/22 06:09:24;;;;;;;23.10;18.52;;;11.40;99.90;;;;;;4771304;30;20276;-81
2023/04/22 06:11:50;;;;;;;28.23;19.02;;;11.40;99.90;;;;;;4771250;30;20339;-81
2023/04/22 06:14:16;;;;;;;26.08;18.10;;;11.50;99.90;;;;;;4771725;30;20200;-82
2023/04/22 06:16:44;;;;;;;24.08;18.27;;;11.50;99.90;;;;;;4772311;30;20196;-81
2023/04/22 06:19:10;;;;;;;24.40;18.05;;;11.50;99.90;;;;;;4773016;30;20192;-81
2023/04/22 06:21:38;;;;;;;25.10;18.42;;;11.50;99.90;;;;;;4766152;30;20193;-81
2023/04/22 06:24:05;;;;;;;24.02;17.92;;;11.60;99.90;;;;;;4770936;30;20236;-82
2023/04/22 06:26:31;;;;;;;31.00;19.70;;;11.50;99.90;;;;;;4765399;30;20376;-82
2023/04/22 06:28:56;;;;;;;24.83;18.58;;;11.60;99.90;;;;;;4759225;30;20192;-82
2023/04/22 06:31:23;;;;;;;23.58;18.27;;;11.60;99.90;;;;;;4770043;30;20928;-82
2023/04/22 06:33:48;;;;;;;27.15;18.05;;;11.60;99.90;;;;;;4755724;30;20303;-82
2023/04/22 06:36:14;;;;;;;21.75;17.92;;;11.70;99.90;;;;;;4760111;30;20246;-82
2023/04/22 06:38:42;;;;;;;22.42;17.77;;;11.80;99.90;;;;;;4757463;30;20201;-82
2023/04/22 06:41:37;;;;;;;22.50;17.63;;;11.80;99.90;;;;;;4766621;30;20204;-83
2023/04/22 06:44:12;;;;;;;27.10;18.38;;;11.80;99.90;;;;;;4751244;30;20224;-83
2023/04/22 06:46:41;;;;;;;24.00;19.02;;;11.90;99.90;;;;;;4780823;29;20201;-84
2023/04/22 06:49:25;;;;;;;24.35;18.20;;;11.90;99.90;;;;;;4757097;30;20239;-84
2023/04/22 06:51:53;;;;;;;24.15;17.80;;;11.90;99.90;;;;;;4781952;30;20200;-87
2023/04/22 06:54:19;;;;;;;22.50;17.33;;;12.00;99.90;;;;;;4745798;30;20263;-82
2023/04/22 06:56:45;;;;;;;22.45;18.30;;;11.90;99.90;;;;;;4758830;29;20188;-83
2023/04/22 06:59:11;;;;;;;24.63;18.70;;;11.90;99.90;;;;;;4780688;29;20200;-82
2023/04/22 07:01:37;;;;;;;24.15;18.27;;;11.90;99.90;;;;;;4759230;30;20726;-82
2023/04/22 07:04:03;;;;;;;26.35;18.90;;;11.90;99.90;;;;;;4763003;29;20239;-81
2023/04/22 07:06:29;;;;;;;25.00;19.50;;;12.00;99.90;;;;;;4762085;30;20193;-82
2023/04/22 07:08:55;;;;;;;26.02;18.08;;;12.00;99.90;;;;;;4754690;30;20221;-79
2023/04/22 07:11:21;;;;;;;22.05;17.48;;;12.00;99.90;;;;;;4771128;30;20216;-81
2023/04/22 07:14:02;;;;;;;26.70;19.25;;;12.00;99.90;;;;;;4755076;30;20223;-82
2023/04/22 07:16:28;;;;;;;25.13;18.70;;;12.10;99.90;;;;;;4766635;30;20221;-82
2023/04/22 07:18:54;;;;;;;24.65;18.40;;;12.10;99.90;;;;;;4739252;30;20646;-82
2023/04/22 07:21:19;;;;;;;27.13;17.70;;;12.20;99.90;;;;;;4768788;30;20205;-78
2023/04/22 07:23:45;;;;;;;23.38;17.98;;;12.20;99.90;;;;;;4771734;30;20587;-77
2023/04/22 07:26:11;;;;;;;22.10;17.85;;;12.20;99.90;;;;;;4777063;29;20293;-83
2023/04/22 07:28:37;;;;;;;30.85;19.13;;;12.20;99.90;;;;;;4769729;30;20200;-78
2023/04/22 07:31:03;;;;;;;22.10;17.45;;;12.20;99.90;;;;;;4783797;30;20201;-79
2023/04/22 07:33:28;;;;;;;24.23;18.25;;;12.30;99.90;;;;;;4770412;30;20575;-80
2023/04/22 07:35:54;;;;;;;22.58;18.05;;;12.30;99.90;;;;;;4743655;30;20626;-80
2023/04/22 07:38:20;;;;;;;24.05;18.00;;;12.30;99.90;;;;;;4787517;29;20271;-79
2023/04/22 07:40:45;;;;;;;29.88;17.88;;;12.30;99.90;;;;;;4777576;29;20566;-85
2023/04/22 07:43:11;;;;;;;22.55;17.70;;;12.40;99.90;;;;;;4771729;30;20201;-78
2023/04/22 07:45:37;;;;;;;22.10;18.35;;;12.40;99.90;;;;;;4773507;30;20734;-84
2023/04/22 07:48:03;;;;;;;25.92;18.67;;;12.40;99.90;;;;;;4788166;30;20193;-78
2023/04/22 07:50:29;;;;;;;23.88;17.40;;;12.50;99.90;;;;;;4759376;30;20655;-77
2023/04/22 07:52:55;;;;;;;21.00;16.85;;;12.50;99.90;;;;;;4784555;30;20200;-78
2023/04/22 07:55:21;;;;;;;20.65;17.10;;;12.60;99.90;;;;;;4782096;29;20279;-84
2023/04/22 07:57:46;;;;;;;21.00;16.33;;;12.70;99.90;;;;;;4762970;30;20271;-83
2023/04/22 08:00:13;;;;;;;21.13;16.30;;;12.70;99.90;;;;;;4785122;29;20295;-90
2023/04/22 08:02:40;;;;;;;20.38;15.27;;;12.90;99.90;;;;;;4773913;30;20189;-89
2023/04/22 08:05:06;;;;;;;19.45;14.80;;;13.00;99.90;;;;;;4752858;30;20295;-81
2023/04/22 08:07:32;;;;;;;21.13;15.45;;;13.10;99.90;;;;;;4770603;29;20287;-82
2023/04/22 08:09:58;;;;;;;23.95;15.48;;;13.20;99.90;;;;;;4771112;29;20288;-82
2023/04/22 08:12:23;;;;;;;20.25;15.80;;;13.30;99.90;;;;;;4762498;30;20208;-79
2023/04/22 08:14:49;;;;;;;20.98;15.73;;;13.40;99.90;;;;;;4782823;30;20208;-80
2023/04/22 08:17:15;;;;;;;20.42;15.23;;;13.40;99.90;;;;;;4770185;30;20502;-80
2023/04/22 08:19:41;;;;;;;20.92;15.70;;;13.50;99.90;;;;;;4760127;30;20535;-84
2023/04/22 08:22:07;;;;;;;20.50;16.05;;;13.50;99.90;;;;;;4750465;30;20595;-81
2023/04/22 08:24:32;;;;;;;21.08;15.90;;;13.70;99.90;;;;;;4753421;30;20229;-82
2023/04/22 08:26:58;;;;;;;19.17;15.20;;;13.80;99.90;;;;;;4760904;30;20653;-81
2023/04/22 08:29:24;;;;;;;20.63;15.07;;;13.90;99.90;;;;;;4750495;30;20547;-81
2023/04/22 08:31:50;;;;;;;22.13;15.23;;;14.10;99.90;;;;;;4755334;29;20200;-81
2023/04/22 08:34:15;;;;;;;18.63;14.82;;;14.20;99.90;;;;;;4774307;29;20614;-82
2023/04/22 08:36:41;;;;;;;17.10;14.48;;;14.40;99.90;;;;;;4770507;30;20197;-80
2023/04/22 08:39:07;;;;;;;18.70;13.25;;;14.50;99.90;;;;;;4783597;29;20776;-82
2023/04/22 08:41:34;;;;;;;18.50;14.32;;;14.70;99.90;;;;;;4761279;30;20283;-89
2023/04/22 08:44:01;;;;;;;17.55;13.93;;;14.90;99.90;;;;;;4771624;29;20315;-82
2023/04/22 08:46:27;;;;;;;18.70;13.85;;;15.10;99.90;;;;;;4781924;30;20197;-84
2023/04/22 08:48:53;;;;;;;17.60;13.02;;;15.40;99.90;;;;;;4782162;30;20567;-82
2023/04/22 08:51:19;;;;;;;15.55;12.55;;;15.70;99.90;;;;;;4777434;29;20217;-91
2023/04/22 08:53:46;;;;;;;16.33;12.88;;;15.80;99.90;;;;;;4756361;30;20268;-83
2023/04/22 08:56:12;;;;;;;16.70;12.80;;;16.00;99.90;;;;;;4783216;30;22043;-80
2023/04/22 08:58:42;;;;;;;18.27;13.07;;;16.10;99.90;;;;;;4772185;30;20188;-78
2023/04/22 09:01:08;;;;;;;19.25;13.10;;;16.30;99.90;;;;;;4781871;30;20201;-80
2023/04/22 09:03:36;;;;;;;15.45;12.38;;;16.50;99.90;;;;;;4787500;30;20188;-82
2023/04/22 09:06:05;;;;;;;17.77;12.73;;;16.60;99.90;;;;;;4783018;29;20669;-79
2023/04/22 09:08:34;;;;;;;16.35;12.13;;;16.80;99.90;;;;;;4779841;29;20292;-79
2023/04/22 09:11:00;;;;;;;18.35;12.45;;;17.00;99.90;;;;;;4771824;30;20242;-81
2023/04/22 09:13:26;;;;;;;14.73;11.90;;;17.20;99.90;;;;;;4786140;29;21296;-81
2023/04/22 09:15:52;;;;;;;14.40;12.15;;;17.30;99.90;;;;;;4767387;29;20204;-83
2023/04/22 09:18:19;;;;;;;17.73;12.40;;;17.40;99.90;;;;;;4778860;29;20201;-81
2023/04/22 09:20:53;;;;;;;17.10;12.75;;;17.50;99.90;;;;;;4772968;30;20188;-80
2023/04/22 09:23:20;;;;;;;13.98;12.45;;;17.60;99.90;;;;;;4788091;30;20222;-82
2023/04/22 09:25:46;;;;;;;20.85;12.48;;;17.70;99.90;;;;;;4783898;30;20710;-81
2023/04/22 09:28:17;;;;;;;14.85;12.50;;;17.70;99.90;;;;;;4782981;29;20485;-81
2023/04/22 09:30:44;;;;;;;17.20;12.02;;;17.80;99.90;;;;;;4781571;29;20220;-80
2023/04/22 09:33:12;;;;;;;16.50;11.88;;;18.00;99.90;;;;;;4772997;30;20251;-80
2023/04/22 09:35:40;;;;;;;16.42;10.95;;;18.10;99.90;;;;;;4788385;30;20227;-82
2023/04/22 09:38:09;;;;;;;14.13;11.55;;;18.30;99.90;;;;;;4773522;29;20185;-81
2023/04/22 09:40:36;;;;;;;13.52;11.40;;;18.50;99.90;;;;;;4778491;29;20594;-81
2023/04/22 09:43:05;;;;;;;13.65;11.13;;;18.60;99.90;;;;;;4786682;30;20196;-81
2023/04/22 09:45:41;;;;;;;14.30;11.38;;;18.70;99.90;;;;;;4755946;30;20667;-81
2023/04/22 09:48:08;;;;;;;12.65;10.20;;;18.80;99.90;;;;;;4787833;30;20197;-80
2023/04/22 09:50:35;;;;;;;15.75;10.70;;;19.00;99.90;;;;;;4780755;29;20212;-80
2023/04/22 09:53:13;;;;;;;14.05;11.32;;;19.10;99.90;;;;;;4784118;29;20638;-79
2023/04/22 09:55:43;;;;;;;15.00;11.23;;;19.10;99.90;;;;;;4785049;29;20203;-81
2023/04/22 09:58:17;;;;;;;13.85;11.23;;;19.20;99.90;;;;;;4781856;30;20197;-81
2023/04/22 10:00:53;;;;;;;12.55;10.40;;;19.30;99.90;;;;;;4776608;29;20188;-82
2023/04/22 10:03:19;;;;;;;14.98;10.70;;;19.40;99.90;;;;;;4781091;29;20185;-81
2023/04/22 10:05:45;;;;;;;16.02;11.77;;;19.40;99.90;;;;;;4774981;29;20622;-81
2023/04/22 10:08:13;;;;;;;15.30;11.10;;;19.40;99.90;;;;;;4778201;30;20201;-81
2023/04/22 10:10:39;;;;;;;14.40;11.25;;;19.40;99.90;;;;;;4789165;30;20245;-81
2023/04/22 10:13:06;;;;;;;13.20;10.88;;;19.40;99.90;;;;;;4787438;30;20253;-81
2023/04/22 10:15:35;;;;;;;12.07;10.68;;;19.30;99.90;;;;;;4783337;29;20193;-82
2023/04/22 10:18:06;;;;;;;13.80;10.82;;;19.30;99.90;;;;;;4776177;29;20276;-81
2023/04/22 10:20:39;;;;;;;12.05;10.43;;;19.30;99.90;;;;;;4786169;29;20218;-81
2023/04/22 10:23:11;;;;;;;13.38;11.15;;;19.30;99.90;;;;;;4785600;30;20197;-82
2023/04/22 10:25:39;;;;;;;13.20;11.05;;;19.40;99.90;;;;;;4774237;29;20224;-82
2023/04/22 10:28:07;;;;;;;15.88;11.30;;;19.50;99.90;;;;;;4779518;29;20193;-82
2023/04/22 10:30:37;;;;;;;12.50;9.90;;;19.60;99.90;;;;;;4789650;30;20189;-82
2023/04/22 10:33:27;;;;;;;13.25;9.35;;;19.70;99.90;;;;;;4788145;30;20193;-82
2023/04/22 10:36:14;;;;;;;12.40;8.93;;;19.80;99.90;;;;;;4784793;30;20209;-82
2023/04/22 10:38:49;;;;;;;11.68;9.35;;;19.90;99.90;;;;;;4775074;29;20189;-82
2023/04/22 10:41:15;;;;;;;10.55;8.98;;;19.90;99.90;;;;;;4773014;30;20215;-83
2023/04/22 10:43:46;;;;;;;12.10;8.80;;;19.90;99.90;;;;;;4788283;30;20203;-82
2023/04/22 10:46:34;;;;;;;12.07;8.95;;;20.00;99.90;;;;;;4786103;29;20685;-83
2023/04/22 10:49:14;;;;;;;12.35;8.80;;;20.10;99.90;;;;;;4776858;29;20558;-82
2023/04/22 10:51:50;;;;;;;10.15;8.57;;;20.10;99.90;;;;;;4775595;30;20642;-82
2023/04/22 10:54:26;;;;;;;9.13;6.80;;;20.10;99.90;;;;;;4787207;29;20242;-84
2023/04/22 10:57:09;;;;;;;9.25;7.53;;;20.10;99.90;;;;;;4776826;29;20185;-83
2023/04/22 10:59:44;;;;;;;9.30;7.00;;;20.20;99.70;;;;;;4772486;30;20593;-83
2023/04/22 11:02:13;;;;;;;11.13;7.38;;;20.20;99.50;;;;;;4771808;30;20690;-82
2023/04/22 11:04:39;;;;;;;7.70;6.90;;;20.30;99.20;;;;;;4781025;29;20213;-83
2023/04/22 11:07:21;;;;;;;10.90;7.28;;;20.30;98.90;;;;;;4775442;29;20189;-84
2023/04/22 11:09:57;;;;;;;11.00;8.20;;;20.40;98.40;;;;;;4767374;30;20193;-82
2023/04/22 11:12:37;;;;;;;11.85;7.70;;;20.40;98.20;;;;;;4781509;30;20681;-81
2023/04/22 11:15:09;;;;;;;9.70;7.40;;;20.50;98.00;;;;;;4772027;30;20212;-82
2023/04/22 11:17:36;;;;;;;10.18;7.80;;;20.50;98.00;;;;;;4777186;29;20200;-82
2023/04/22 11:20:03;;;;;;;9.63;7.95;;;20.70;97.70;;;;;;4771383;30;20720;-82
2023/04/22 11:22:36;;;;;;;12.02;8.23;;;20.70;97.20;;;;;;4770638;30;20276;-82
2023/04/22 11:25:04;;;;;;;10.25;7.63;;;20.70;97.20;;;;;;4768913;30;20205;-82
2023/04/22 11:27:30;;;;;;;9.13;7.20;;;20.80;97.10;;;;;;4762394;30;20846;-84
2023/04/22 11:30:04;;;;;;;8.93;7.07;;;20.90;96.90;;;;;;4775187;29;20204;-82
2023/04/22 11:32:31;;;;;;;11.50;6.60;;;21.00;96.40;;;;;;4780246;30;20188;-81
2023/04/22 11:34:57;;;;;;;9.18;6.93;;;21.00;96.00;;;;;;4775953;30;20200;-82
2023/04/22 11:37:23;;;;;;;8.70;6.55;;;21.00;95.80;;;;;;4782633;29;20610;-82
2023/04/22 11:39:52;;;;;;;9.10;7.25;;;21.10;95.90;;;;;;4780932;29;20276;-81
2023/04/22 11:42:21;;;;;;;10.50;7.43;;;21.20;95.50;;;;;;4768556;30;20205;-81
2023/04/22 11:44:47;;;;;;;10.63;7.90;;;21.20;95.10;;;;;;4754940;30;20855;-80
2023/04/22 11:47:13;;;;;;;10.80;7.93;;;21.30;95.00;;;;;;4768786;30;20662;-84
2023/04/22 11:49:39;;;;;;;10.10;7.50;;;21.30;94.70;;;;;;4772332;30;20666;-82
2023/04/22 11:52:04;;;;;;;8.20;6.68;;;21.20;94.60;;;;;;4770374;30;20200;-81
2023/04/22 11:54:35;;;;;;;9.80;6.95;;;21.20;94.70;;;;;;4785058;29;20189;-83
2023/04/22 11:57:07;;;;;;;9.57;7.00;;;21.30;94.50;;;;;;4760165;30;20207;-82
2023/04/22 11:59:33;;;;;;;13.13;7.15;;;21.30;94.20;;;;;;4769896;30;20272;-82
2023/04/22 12:01:59;;;;;;;10.40;6.97;;;21.30;94.00;;;;;;4776864;30;20200;-82
2023/04/22 12:04:25;;;;;;;10.32;6.82;;;21.30;93.90;;;;;;4771094;30;20560;-80
2023/04/22 12:06:51;;;;;;;12.05;6.53;;;21.30;93.60;;;;;;4764785;29;20699;-82
2023/04/22 12:09:17;;;;;;;9.00;6.03;;;21.30;93.40;;;;;;4786751;30;20668;-81
2023/04/22 12:11:46;;;;;;;8.88;6.07;;;21.40;93.20;;;;;;4759821;30;20193;-81
2023/04/22 12:14:11;;;;;;;8.18;6.95;;;21.40;93.20;;;;;;4787333;30;20189;-82
2023/04/22 12:16:41;;;;;;;7.95;6.38;;;21.50;92.70;;;;;;4765718;29;20208;-80
2023/04/22 12:19:07;;;;;;;11.00;6.70;;;21.50;92.50;;;;;;4757901;29;20331;-81
2023/04/22 12:21:33;;;;;;;8.80;6.93;;;21.50;92.40;;;;;;4783492;30;20194;-80
2023/04/22 12:24:09;;;;;;;8.50;6.28;;;21.50;92.30;;;;;;4779007;30;20646;-81
2023/04/22 12:26:36;;;;;;;11.43;7.32;;;21.50;92.00;;;;;;4782517;29;20787;-82
2023/04/22 12:29:03;;;;;;;10.55;7.22;;;21.50;91.90;;;;;;4770402;29;20204;-81
2023/04/22 12:31:29;;;;;;;8.70;6.43;;;21.50;91.90;;;;;;4783597;29;20254;-82